Latest Coastal Weather Observations for Cape Willoughby

IDS60701

Issued at 1:11 am CST Monday 15 April 2024 (issued every 10 minutes, with the page automatically refreshed every 10 minutes)

About coastal observations | Map of coastal stations | Coastal observations for SA | Marine services | Other Formats
Station Details ID: 022803 Name: CAPE WILLOUGHBY Lat: -35.84 Lon: 138.13 Height: 55.0 m
Data from the previous 72 hours. | See also: Recent months at Cape Willoughby
Date/Time
CST
Wind Sea
Height
m
Swell Vis
km
Cloud Weather Temp
°C
Press
MSL
hPa
Rain since
9am
mm
Dir  Spd
kts
Gust
kts
Height
m
Period
s
Dir
15/01:00am ESE 5 6 - - - - - - - 14.9 1024.5 0.0
15/12:30am E 4 5 - - - - - - - 15.0 1024.6 0.0
15/12:00am SE 4 6 - - - - - - - 15.0 1024.8 0.0
 
Date/Time
CST
Wind Sea
Height
m
Swell Vis
km
Cloud Weather Temp
°C
Press
MSL
hPa
Rain since
9am
mm
Dir  Spd
kts
Gust
kts
Height
m
Period
s
Dir
14/11:30pm SSE 3 5 - - - - - - - 15.0 1024.9 0.0
14/11:00pm ESE 5 7 - - - - - - - 14.9 1024.9 0.0
14/10:30pm E 4 6 - - - - - - - 14.8 1025.0 0.0
14/10:00pm SSE 4 5 - - - - - - - 14.9 1025.1 0.0
14/09:30pm SSE 4 7 - - - - - - - 15.1 1025.0 0.0
14/09:00pm SSE 6 8 - - - - - - - 15.1 1024.9 0.0
14/08:30pm S 7 9 - - - - - - - 15.1 1024.7 0.0
14/08:00pm S 8 10 - - - - - - - 15.1 1024.6 0.0
14/07:30pm S 8 10 - - - - - - - 15.1 1024.4 0.0
14/07:00pm S 7 9 - - - - - - - 15.3 1024.2 0.0
14/06:30pm S 9 11 - - - - - - - 15.2 1024.1 0.0
14/06:00pm S 10 12 - - - - - - - 15.2 1023.8 0.0
14/05:30pm S 8 11 - - - - - - - 15.3 1023.6 0.0
14/05:00pm S 8 10 - - - - - - - 15.3 1023.4 0.0
14/04:30pm S 8 11 - - - - - - - 15.6 1023.2 0.0
14/04:00pm S 8 10 - - - - - - - 15.7 1023.3 0.0
14/03:30pm SSE 6 8 - - - - - - - 16.0 1023.4 0.0
14/03:00pm SSE 6 8 - - - - - - - 16.0 1023.3 0.0
14/02:30pm SSE 5 7 - - - - - - - 15.9 1023.1 0.0
14/02:00pm SSE 5 7 - - - - - - - 15.8 1023.3 0.0
14/01:30pm ESE 5 6 - - - - - - - 16.0 1023.3 0.0
14/01:00pm ESE 5 7 - - - - - - - 17.2 1023.5 0.0
14/12:30pm E 5 6 - - - - - - - 16.2 1023.9 0.0
14/12:00pm ESE 4 6 - - - - - - - 16.9 1024.2 0.0
14/11:30am ESE 5 7 - - - - - - - 16.7 1024.2 0.0
14/11:00am ESE 5 7 - - - - - - - 15.6 1024.2 0.0
14/10:30am ESE 5 7 - - - - - - - 16.2 1024.3 0.0
14/10:00am ESE 4 5 - - - - - - - 16.7 1024.4 0.0
14/09:30am E 4 5 - - - - - - - 15.9 1024.6 0.0
14/09:00am ENE 5 6 - - - - - - - 16.0 1024.7 0.0
14/08:30am ENE 4 5 - - - - - - - 15.5 1024.6 0.0
14/08:00am ENE 5 7 - - - - - - - 15.2 1024.6 0.0
14/07:30am NE 4 5 - - - - - - - 14.5 1024.3 0.0
14/07:00am NE 4 5 - - - - - - - 13.7 1024.0 0.0
14/06:30am NE 5 6 - - - - - - - 13.4 1023.8 0.0
14/06:00am ENE 4 6 - - - - - - - 13.5 1023.6 0.0
14/05:30am NE 4 7 - - - - - - - 13.4 1023.4 0.0
14/05:00am NNE 3 4 - - - - - - - 13.3 1023.3 0.0
14/04:30am E 4 6 - - - - - - - 13.5 1023.2 0.0
14/04:00am E 2 3 - - - - - - - 13.2 1023.3 0.0
14/03:30am ENE 3 4 - - - - - - - 13.4 1023.4 0.0
14/03:00am ENE 4 6 - - - - - - - 13.4 1023.5 0.0
14/02:30am ENE 4 5 - - - - - - - 13.5 1023.8 0.0
14/02:00am E 3 4 - - - - - - - 13.7 1024.2 0.0
14/01:30am E 6 8 - - - - - - - 14.3 1024.2 0.0
14/01:00am E 6 8 - - - - - - - 14.3 1024.2 0.0
14/12:30am E 5 6 - - - - - - - 14.4 1024.3 0.0
14/12:00am E 6 8 - - - - - - - 14.5 1024.1 0.0
 
Date/Time
CST
Wind Sea
Height
m
Swell Vis
km
Cloud Weather Temp
°C
Press
MSL
hPa
Rain since
9am
mm
Dir  Spd
kts
Gust
kts
Height
m
Period
s
Dir
13/11:30pm E 3 4 - - - - - - - 14.3 1024.3 0.0
13/11:00pm E 3 5 - - - - - - - 14.2 1024.4 0.0
13/10:30pm ESE 6 7 - - - - - - - 14.2 1024.6 0.0
13/10:00pm ESE 5 8 - - - - - - - 14.4 1024.9 0.0
13/09:30pm ESE 5 7 - - - - - - - 14.5 1025.0 0.0
13/09:00pm ESE 6 7 - - - - - - - 14.3 1025.0 0.0
13/08:30pm ESE 5 6 - - - - - - - 14.2 1025.1 0.0
13/08:00pm ESE 6 8 - - - - - - - 14.4 1025.0 0.0
13/07:30pm ESE 5 7 - - - - - - - 14.3 1024.8 0.0
13/07:00pm E 5 7 - - - - - - - 14.5 1024.6 0.0
13/06:30pm ESE 6 8 - - - - - - - 14.5 1024.3 0.0
13/06:00pm ESE 5 8 - - - - - - - 14.6 1024.0 0.0
13/05:30pm SE 5 7 - - - - - - - 14.9 1023.8 0.0
13/05:00pm SSE 4 6 - - - - - - - 15.2 1023.7 0.0
13/04:30pm S 5 7 - - - - - - - 15.5 1023.7 0.0
13/04:00pm SSE 6 8 - - - - - - - 15.8 1023.8 0.0
13/03:30pm SE 4 6 - - - - - - - 16.4 1024.0 0.0
13/03:00pm SSE 5 7 - - - - - - - 16.3 1024.2 0.0
13/02:30pm SSE 5 6 - - - - - - - 16.0 1024.3 0.0
13/02:00pm SSE 5 7 - - - - - - - 16.0 1024.5 0.0
13/01:30pm S 6 7 - - - - - - - 15.8 1024.7 0.0
13/01:00pm S 5 8 - - - - - - - 15.6 1025.0 0.0
13/12:30pm SSE 5 7 - - - - - - - 16.1 1025.4 0.0
13/12:00pm SSE 5 6 - - - - - - - 16.0 1025.7 0.0
13/11:30am S 4 6 - - - - - - - 15.8 1025.9 0.0
13/11:00am SSE 3 5 - - - - - - - 15.6 1026.0 0.0
13/10:30am S 4 7 - - - - - - - 15.4 1026.0 0.0
13/10:00am S 4 6 - - - - - - - 15.3 1026.1 0.0
13/09:30am S 2 5 - - - - - - - 15.2 1026.1 0.0
13/09:00am W 4 5 - - - - - - - 14.7 1026.1 0.2
13/08:30am WNW 5 7 - - - - - - - 14.0 1025.8 0.2
13/08:00am W 4 5 - - - - - - - 13.7 1025.5 0.2
13/07:30am S 2 4 - - - - - - - 13.3 1025.2 0.2
13/07:00am WSW 6 9 - - - - - - - 13.6 1024.9 0.0
13/06:30am WNW 2 4 - - - - - - - 13.0 1024.8 0.0
13/06:00am W 7 9 - - - - - - - 12.8 1024.8 0.0
13/05:30am S 3 4 - - - - - - - 13.2 1024.7 0.0
13/05:00am S 4 5 - - - - - - - 13.5 1024.5 0.0
13/04:30am S 6 7 - - - - - - - 13.7 1024.2 0.0
13/04:00am SSW 5 7 - - - - - - - 14.0 1024.0 0.0
13/03:30am SSW 7 9 - - - - - - - 13.9 1023.9 0.0
13/03:00am SSW 8 12 - - - - - - - 14.3 1023.9 0.0
13/02:30am S 4 8 - - - - - - - 14.5 1024.2 0.0
13/02:00am SSE 2 3 - - - - - - - 14.5 1024.5 0.0
13/01:30am ESE 4 6 - - - - - - - 14.3 1024.5 0.0
13/01:00am S 7 10 - - - - - - - 14.7 1024.5 0.0
13/12:30am SW 5 8 - - - - - - - 14.9 1024.5 0.0
13/12:00am SSW 6 10 - - - - - - - 15.2 1024.6 0.0
 
Date/Time
CST
Wind Sea
Height
m
Swell Vis
km
Cloud Weather Temp
°C
Press
MSL
hPa
Rain since
9am
mm
Dir  Spd
kts
Gust
kts
Height
m
Period
s
Dir
12/11:30pm S 7 13 - - - - - - - 15.3 1024.6 0.0
12/11:00pm S 3 3 - - - - - - - 14.8 1024.7 0.0
12/10:30pm S 4 7 - - - - - - - 15.4 1024.8 0.0
12/10:00pm SSW 5 8 - - - - - - - 15.2 1025.0 0.0
12/09:30pm SSW 4 9 - - - - - - - 15.1 1025.1 0.0
12/09:00pm SW 6 9 - - - - - - - 15.2 1024.9 0.0
12/08:30pm SW 7 12 - - - - - - - 15.2 1024.7 0.0
12/08:00pm SSW 7 12 - - - - - - - 15.2 1024.5 0.0
12/07:30pm S 8 11 - - - - - - - 15.2 1024.4 0.0
12/07:00pm S 7 9 - - - - - - - 15.2 1024.3 0.0
12/06:30pm SSW 9 12 - - - - - - - 15.2 1024.0 0.0
12/06:00pm SSW 6 9 - - - - - - - 15.1 1023.9 0.0
12/05:30pm S 9 13 - - - - - - - 15.1 1023.5 0.0
12/05:00pm SSW 8 16 - - - - - - - 15.3 1023.4 0.0
12/04:30pm S 7 11 - - - - - - - 15.6 1023.3 0.0
12/04:00pm S 8 12 - - - - - - - 15.7 1023.4 0.0
12/03:30pm S 7 10 - - - - - - - 15.7 1023.5 0.0
12/03:00pm S 7 11 - - - - - - - 15.9 1023.5 0.0
12/02:30pm S 7 12 - - - - - - - 15.8 1023.6 0.0
12/02:00pm SSW 7 11 - - - - - - - 15.9 1023.9 0.0
12/01:30pm SSW 7 12 - - - - - - - 16.0 1024.0 0.0
12/01:00pm SSW 7 11 - - - - - - - 16.0 1024.3 0.0
12/12:30pm S 6 8 - - - - - - - 15.6 1024.9 0.0
12/12:00pm S 6 8 - - - - - - - 15.7 1025.3 0.0
12/11:30am S 6 8 - - - - - - - 15.8 1025.4 0.0
12/11:00am SSW 6 10 - - - - - - - 15.5 1025.7 0.0
12/10:30am WSW 6 7 - - - - - - - 15.6 1025.8 0.0
12/10:00am WSW 8 11 - - - - - - - 15.2 1026.0 0.0
12/09:30am WNW 6 8 - - - - - - - 15.2 1026.2 0.0
12/09:00am WNW 8 11 - - - - - - - 14.9 1026.3 0.2
12/08:30am W 8 11 - - - - - - - 14.9 1026.1 0.2
12/08:00am WSW 9 12 - - - - - - - 15.0 1025.9 0.2
12/07:30am WNW 7 8 - - - - - - - 14.3 1025.6 0.2
12/07:00am WSW 5 7 - - - - - - - 14.5 1025.2 0.2
12/06:30am W 5 7 - - - - - - - 14.3 1024.8 0.2
12/06:00am SSW 2 4 - - - - - - - 14.7 1024.6 0.2
12/05:30am S 5 8 - - - - - - - 14.9 1024.1 0.2
12/05:00am SSE 5 7 - - - - - - - 14.9 1024.0 0.2
12/04:30am SE 3 6 - - - - - - - 14.9 1023.8 0.2
12/04:00am SSW 7 11 - - - - - - - 14.9 1023.7 0.2
12/03:30am SSW 5 9 - - - - - - - 14.9 1023.8 0.2
12/03:00am SSW 5 10 - - - - - - - 14.9 1024.0 0.2
12/02:30am SW 8 11 - - - - - - - 14.9 1024.2 0.2
12/02:00am SW 8 11 - - - - - - - 15.0 1024.7 0.2
12/01:30am SW 7 11 - - - - - - - 15.1 1025.0 0.2

Other formats

Comma delimited format used in spreadsheet applications
http://www.bom.gov.au/fwo/IDS60701/IDS60701.94822.axf

JavaScript Object Notation format (JSON) in row-major order
http://www.bom.gov.au/fwo/IDS60701/IDS60701.94822.json

Data quality

Most of these data are generated automatically and are frequently updated. Quality checks on data are not normally performed. It is possible for incorrect values to appear. Refer to information at About Latest Weather Observations and please check the disclaimer before using these data.